Timeline UpdatesTrip UpdatesNews PostsPvt PostsTravel TipsAdmin PostsConv PostsFollowed PostsChat RequestsBlog PostsPNR Posts

Disclaimer
Search
 
 
Sat Apr 19, 2014 07:27:08 ISTHomeTrainsΣChainsAtlasPNRForumGalleryNewsFAQTripsMembersLoginFeedback
No Recent News for this Train
Other Trains in the News **new
Latest...
stoppage have been given on experimental basis for a period of six months At vapi from Oct 2013
Mon Sep 30, 2013 (05:16PM)
⇐ Return Journey: Train# 16336

16335/Gandhidham Nagercoil Weekly Express

Mar 05 2014 (5:55PM)
Change Departure Station:
Change Arrival Station:
Post a Train Travel TipPost a Train Travel Tip **new
Post a Comment/Question/Picture/VideoPost a Comment/Question/Picture/Video
Pantry/Catering
✓ Pantry Car Avbl
✓ Catering Avbl
RSA - Rake Sharing
06309/06310/16335/16336 has RSA.
Rake/Coach Composition
LOCO-SLR-GEN-GEN-B1-B2-A1-S12-S11-S10-S9-S8-S7-PC-S6-S5-S4-S3-S2-S1-GEN-LD-SLR; As seen at Ahmedabad on 22 Apr
Loco
ERS WDM3A from GIMB to SRR and WAP4 RPM/ED from SRR...
Read more...
to NCJ
News    PNR    Forum    Time-Table    Availability    Fare Chart    Map    Arr/Dep History    Trips    Gallery    ΣChains    X/O    Timeline    
Travel Time: 1h 30m    0 halts    Distance: 71 km    Avg Speed: 47 km/hr
Type: Mail/Express
Zone: SR/Southern
Departs @ 02:45 (Avg on time)
Platform# 3
S      
Trivandrum Central/TVC 
Arrives @ 04:15 (Avg 1m early)
Platform# 23
S      
Nagercoil Junction/NCJ 

0 halts. 12 intermediate Stations between Trivandrum Central and Nagercoil Junction

Show ALL intermediate Stations  Show Old Time-Table

#CodeStation NameX/OArrivesAvgDepartsAvgHaltPFDay#KmSpeedElevZoneAddress
1GIMBGandhidham Junction (3)  -05:30+031-2274.17312mWRGandhidham, Gujarat
2BCOBBhachau (3)  06:01+906:03+92m21-2236.33544mWRBhachau, Gujarat
3SIOBSamakhiali Junction (3)  06:30-106:32+12m21-2220.36242mWRSamakhiali, Gujarat
4MALBMaliya Miyana Junction (2)  07:10+107:12+32m--1-2181.1726mWRMalia, Gujarat
5DHGDhrangadhra Junction (3)  08:16+908:18+132m--1-2104.24154mWRDhrangadhra, Gujarat
6VGViramgam Junction (5)  09:52-309:54+02m21-2039.65529mWRViramgam, Gujarat
7ADIAhmedabad Junction (12)  11:05+011:25+120m61-1974.16551mWRAhmedabad, Gujarat
8NDNadiad Junction (4)X  12:07+1912:09+192m11-1928.66237mWRNadiad, Gujarat
9ANNDAnand Junction (6)X  12:27+2012:29+202m11-1910.15244mWRAnand, Gujarat
10BRCVadodara Junction (7)X  13:10+2113:12+272m11-1874.37036mWRVadodara, Gujarat
11AKVAnkleshwar Junction (4)X  14:20+1614:22+162m21-1794.54219mWRAnkleshwar, Gujarat
12STSurat (4)X  15:33+615:35+142m21-1744.55819mWRSurat 395001, Gujarat
13BLValsad (3)X  16:46+1316:48+152m31-1675.86615mWRValsad, Gujarat
14VAPIVapi (3)X17:12+1917:14+202m--1-1649.64127mWRVapi, Gujarat
15BORBoisar (3)X18:57+218:59+42m--1-1579.43517mWRBoisar Tel.no-02525-266626, Maharashtra
16BSRVasai Road (7)  20:25+220:30+105m71-1528.5447mWRThane-401202, Maharashtra
17BIRDBhiwandi Road (4)  21:07+721:08+91m11-1501.24126mCRBhiwandi, Maharashtra
18PNVLPanvel Junction (7)  22:00+1622:05+225m71-1463.55810mCRPanvel, Maharashtra
19CHIChiplun (2)X  01:36+5401:38+552m22-1259.86312mKRChiplun, Maharashtra
20RNRatnagiri (3)  02:50+5802:55+1:005m12-1184.466129mKRRatnagiri 415612, Maharashtra
21SWVSawantwadi Road (2)  05:20+1:0305:22+1:082m12-1023.93540mKRDist. Sindhudurg, Maharashtra
22MAOMadgaon Junction (3)  07:30+4207:40+4610m12-949.56411mKRMadgaon 403601, Goa
23CNOCanacona (1)  08:12+4808:14+502m12-915.34529mKRPh:-0832-2643644., Goa
24KAWRKarwar (2)X  08:50+4808:52+512m--2-888.27214mKRKarwar, Karnataka
25KTKumta (2)X  09:38+5509:40+522m--2-833.16320mKRKumta - 581362, Karnataka
26MRDWMurdeshwar (2)  10:18+4710:20+512m--2-793.15028mKRMurudeshwara, Karnataka
27BYNRByndoor Mookambika Road (1)X  10:56+4910:58+492m12-763.27710mKRUdupi Dist. 576214, Karnataka
28KUDAKundapura (2)  11:24+4911:26+492m12-729.66913mKRBasrur, Karnataka
29UDUdupi (2)  11:54+4811:56+482m12-697.65718mKRUdupi, Karnataka
30SLSurathkal (1)  12:40+4212:42+422m12-655.82622mKRSurathkal, Karnataka
31MAJNMangalore Junction (3)  13:30+3013:40+3310m222-635.26824mSRMangalore 575001, Karnataka
32KGQKasaragod (3)  14:23+4114:25+412m--2-586.26618mSRTel: 04994 220800, Kerala
33PAYPayyanur (3)  15:13+3615:15+362m--2-533.8820mSRKannur District, Kerala
34KPQKannapuram (2)  15:29+3715:30+371m--2-514.6299mSRKannur District, Kerala
35CANKannur Main (3)  16:00+2316:05+235m32-500.16914mSRKannur Tel: 0497 2705555, Kerala
36TLYThalassery (2)  16:23+2316:25+232m--2-479.4749mSRKannur, Kerala
37BDJVadakara (2)  16:43+2416:45+242m12-457.36911mSRCalicut / Station Ph No : 0496-2524254, Kerala
38QLDKoyilandy (3)X  17:04+2417:05+251m--2-435.44211mSRQuilandi, Kerala
39CLTKozhikode Main (4)XO  17:40+1717:45+185m--2-411.14311mSRCalicut Tel: 0495 2701234, Kerala
40FKFerok (2)  17:59+1818:00+181m--2-401.16519mSRFeroke, Kerala
41PGIParappangadi (2)X  18:14+2018:15+211m--2-385.95419mSRParappanangadi, Kerala
42TIRTirur (3)X  18:33+2018:35+202m--2-369.8569mSRTel: 0494 2422240, Kerala
43KTUKuttippuram (2)  18:51+2018:53+202m--2-354.86917mSRKuttippuram, Kerala
44PTBPattambi (2)X  19:09+2119:10+211m--2-336.31521mSRPattambi, Kerala
45SRRShoranur Junction (7)  19:55+320:05+810m--2-324.84426mSRShoranur ph.no 0466-2222913, Kerala
46TCRThrissur (4)X  20:50+1020:53+103m12-291.8686mSRThrissur Tel: 0487 2423150, Kerala
47AWYAluva (3)  21:41+1021:43+102m12-237.23712mSRPh: 0484-2624141, Kerala
48ERNErnakulam Town (North) (2)  22:10+922:15+105m22-220.4559mSRTel: 0484 2395198, Kerala
49KTYMKottayam (3)  23:20+1523:25+155m12-160.46415mSRTel: 0481 2563535, Kerala
50TRVLTiruvalla (2)  23:49+1523:51+152m22-134.75427mSRPh: 0469-2601314, Kerala
51CNGRChengannur (3)  00:01+1600:02+171m23-125.6476mSRPh: 0479-2452340, Kerala
52QLNKollam Junction (6)  01:20+501:25+55m13-64.66716mSRKollam 0474-2746194, Kerala
53TVPThiruvananthapuram Pettah (2)  02:21+002:22+01m13-2.4818mSRTrivandrum Ph: 04712470181, Kerala
54TVC»Trivandrum Central (5)»  02:40-102:45+05m330.04712mSRPh: 0471-2321622, Kerala
55NCJ•Nagercoil Junction (3)•  04:15-1-23371.1-22mSRNagercoil-629002, Tamil Nadu
Scroll to Top
Scroll to Bottom